sensor_id;sensor_type;location;lat;lon;timestamp;P1;durP1;ratioP1;P2;durP2;ratioP2
55527;SDS011;52818;43.308;21.916;2023-03-01T04:32:53;5.10;;;3.50;;
55527;SDS011;52818;43.308;21.916;2023-03-01T04:34:46;5.00;;;3.10;;
55527;SDS011;52818;43.308;21.916;2023-03-01T04:38:51;4.60;;;3.60;;
55527;SDS011;52818;43.308;21.916;2023-03-01T04:44:54;4.80;;;3.10;;
55527;SDS011;52818;43.308;21.916;2023-03-01T04:48:54;6.60;;;4.50;;
55527;SDS011;52818;43.308;21.916;2023-03-01T04:50:47;6.20;;;4.00;;
55527;SDS011;52818;43.308;21.916;2023-03-01T04:52:47;7.50;;;4.60;;
55527;SDS011;52818;43.308;21.916;2023-03-01T05:04:51;15.50;;;10.50;;
55527;SDS011;52818;43.308;21.916;2023-03-01T05:08:47;14.00;;;12.50;;
55527;SDS011;52818;43.308;21.916;2023-03-01T05:12:55;12.30;;;10.70;;
55527;SDS011;52818;43.308;21.916;2023-03-01T05:14:50;13.50;;;12.10;;
55527;SDS011;52818;43.308;21.916;2023-03-01T05:16:49;11.50;;;9.80;;
55527;SDS011;52818;43.308;21.916;2023-03-01T05:18:49;21.60;;;19.60;;
55527;SDS011;52818;43.308;21.916;2023-03-01T05:20:51;18.70;;;17.00;;
55527;SDS011;52818;43.308;21.916;2023-03-01T05:22:46;20.70;;;18.70;;
55527;SDS011;52818;43.308;21.916;2023-03-01T05:24:46;17.10;;;15.40;;
55527;SDS011;52818;43.308;21.916;2023-03-01T05:26:54;17.20;;;15.50;;
55527;SDS011;52818;43.308;21.916;2023-03-01T05:28:46;17.10;;;15.40;;
55527;SDS011;52818;43.308;21.916;2023-03-01T05:30:46;15.00;;;13.50;;
55527;SDS011;52818;43.308;21.916;2023-03-01T05:32:47;12.70;;;10.00;;
55527;SDS011;52818;43.308;21.916;2023-03-01T05:34:46;11.40;;;10.20;;
55527;SDS011;52818;43.308;21.916;2023-03-01T05:36:46;13.40;;;10.60;;
55527;SDS011;52818;43.308;21.916;2023-03-01T05:38:47;21.70;;;17.10;;
55527;SDS011;52818;43.308;21.916;2023-03-01T05:40:52;17.80;;;9.30;;
55527;SDS011;52818;43.308;21.916;2023-03-01T05:42:48;12.20;;;8.20;;
55527;SDS011;52818;43.308;21.916;2023-03-01T05:44:53;13.20;;;9.30;;
55527;SDS011;52818;43.308;21.916;2023-03-01T05:46:47;11.70;;;9.70;;
55527;SDS011;52818;43.308;21.916;2023-03-01T05:48:47;10.90;;;8.40;;
55527;SDS011;52818;43.308;21.916;2023-03-01T05:50:47;11.40;;;8.90;;
55527;SDS011;52818;43.308;21.916;2023-03-01T05:54:48;12.00;;;7.80;;
55527;SDS011;52818;43.308;21.916;2023-03-01T05:56:48;10.80;;;7.70;;
55527;SDS011;52818;43.308;21.916;2023-03-01T05:58:48;10.10;;;6.70;;
55527;SDS011;52818;43.308;21.916;2023-03-01T06:00:51;7.30;;;5.30;;
55527;SDS011;52818;43.308;21.916;2023-03-01T06:02:57;9.80;;;5.90;;
55527;SDS011;52818;43.308;21.916;2023-03-01T06:04:50;10.00;;;7.30;;
55527;SDS011;52818;43.308;21.916;2023-03-01T06:08:48;10.60;;;6.50;;
55527;SDS011;52818;43.308;21.916;2023-03-01T06:10:50;7.40;;;5.90;;
55527;SDS011;52818;43.308;21.916;2023-03-01T06:12:56;7.80;;;6.20;;
55527;SDS011;52818;43.308;21.916;2023-03-01T06:14:49;10.90;;;7.80;;
55527;SDS011;52818;43.308;21.916;2023-03-01T06:16:49;14.50;;;8.90;;
55527;SDS011;52818;43.308;21.916;2023-03-01T06:18:49;12.60;;;7.70;;
55527;SDS011;52818;43.308;21.916;2023-03-01T06:20:52;10.20;;;7.00;;
55527;SDS011;52818;43.308;21.916;2023-03-01T06:22:49;10.30;;;6.30;;
55527;SDS011;52818;43.308;21.916;2023-03-01T06:24:49;8.00;;;5.30;;
55527;SDS011;52818;43.308;21.916;2023-03-01T06:26:49;6.00;;;4.40;;
55527;SDS011;52818;43.308;21.916;2023-03-01T06:28:51;6.80;;;;;
55527;SDS011;52818;43.308;21.916;2023-03-01T06:30:50;6.00;;;;;
55527;SDS011;52818;43.308;21.916;2023-03-01T06:32:49;9.60;;;6.50;;
55527;SDS011;52818;43.308;21.916;2023-03-01T06:34:54;9.00;;;5.80;;
55527;SDS011;52818;43.308;21.916;2023-03-01T06:36:50;10.10;;;6.10;;
55527;SDS011;52818;43.308;21.916;2023-03-01T06:42:50;12.90;;;7.00;;
55527;SDS011;52818;43.308;21.916;2023-03-01T06:44:50;10.20;;;7.40;;
55527;SDS011;52818;43.308;21.916;2023-03-01T06:46:50;12.10;;;8.00;;
55527;SDS011;52818;43.308;21.916;2023-03-01T06:48:50;12.90;;;8.50;;
55527;SDS011;52818;43.308;21.916;2023-03-01T06:50:50;17.30;;;11.00;;
55527;SDS011;52818;43.308;21.916;2023-03-01T06:54:56;14.70;;;10.40;;
55527;SDS011;52818;43.308;21.916;2023-03-01T06:56:57;12.30;;;9.10;;
55527;SDS011;52818;43.308;21.916;2023-03-01T07:00:56;10.70;;;7.40;;
55527;SDS011;52818;43.308;21.916;2023-03-01T07:02:51;12.40;;;7.60;;
55527;SDS011;52818;43.308;21.916;2023-03-01T07:04:51;11.20;;;7.70;;
55527;SDS011;52818;43.308;21.916;2023-03-01T07:06:51;12.80;;;8.60;;
55527;SDS011;52818;43.308;21.916;2023-03-01T07:08:51;12.30;;;8.10;;
55527;SDS011;52818;43.308;21.916;2023-03-01T07:10:54;10.90;;;8.00;;
55527;SDS011;52818;43.308;21.916;2023-03-01T07:14:59;11.30;;;7.70;;
55527;SDS011;52818;43.308;21.916;2023-03-01T07:18:55;9.20;;;7.20;;
55527;SDS011;52818;43.308;21.916;2023-03-01T07:20:52;8.10;;;6.00;;
55527;SDS011;52818;43.308;21.916;2023-03-01T07:22:55;7.50;;;5.60;;
55527;SDS011;52818;43.308;21.916;2023-03-01T07:24:55;7.20;;;5.30;;
55527;SDS011;52818;43.308;21.916;2023-03-01T07:26:52;6.50;;;4.70;;
55527;SDS011;52818;43.308;21.916;2023-03-01T07:28:52;6.60;;;5.00;;
55527;SDS011;52818;43.308;21.916;2023-03-01T07:30:53;7.70;;;5.40;;
55527;SDS011;52818;43.308;21.916;2023-03-01T07:32:53;9.70;;;6.30;;
55527;SDS011;52818;43.308;21.916;2023-03-01T07:34:55;8.00;;;5.60;;
55527;SDS011;52818;43.308;21.916;2023-03-01T07:40:53;10.20;;;8.00;;
55527;SDS011;52818;43.308;21.916;2023-03-01T07:42:55;10.70;;;8.50;;
55527;SDS011;52818;43.308;21.916;2023-03-01T07:44:53;13.30;;;9.20;;
55527;SDS011;52818;43.308;21.916;2023-03-01T07:46:54;19.20;;;13.80;;
55527;SDS011;52818;43.308;21.916;2023-03-01T07:48:55;22.60;;;15.70;;
55527;SDS011;52818;43.308;21.916;2023-03-01T07:50:53;24.20;;;17.20;;
55527;SDS011;52818;43.308;21.916;2023-03-01T08:00:54;12.20;;;7.70;;
55527;SDS011;52818;43.308;21.916;2023-03-01T08:20:55;7.50;;;5.40;;
55527;SDS011;52818;43.308;21.916;2023-03-01T08:22:57;7.90;;;5.10;;
55527;SDS011;52818;43.308;21.916;2023-03-01T08:24:55;10.60;;;6.90;;
55527;SDS011;52818;43.308;21.916;2023-03-01T08:26:58;11.20;;;7.50;;
55527;SDS011;52818;43.308;21.916;2023-03-01T08:28:55;9.40;;;6.50;;
55527;SDS011;52818;43.308;21.916;2023-03-01T08:30:55;8.50;;;6.20;;
55527;SDS011;52818;43.308;21.916;2023-03-01T08:32:55;8.60;;;;;
55527;SDS011;52818;43.308;21.916;2023-03-01T08:36:57;9.30;;;6.30;;
55527;SDS011;52818;43.308;21.916;2023-03-01T08:40:59;8.90;;;5.80;;
55527;SDS011;52818;43.308;21.916;2023-03-01T08:42:56;8.80;;;6.30;;
55527;SDS011;52818;43.308;21.916;2023-03-01T08:44:56;9.60;;;6.70;;
55527;SDS011;52818;43.308;21.916;2023-03-01T08:46:56;10.90;;;8.50;;
55527;SDS011;52818;43.308;21.916;2023-03-01T08:51:09;9.40;;;7.30;;
55527;SDS011;52818;43.308;21.916;2023-03-01T08:53:00;11.20;;;8.20;;
55527;SDS011;52818;43.308;21.916;2023-03-01T08:54:56;8.00;;;5.90;;
55527;SDS011;52818;43.308;21.916;2023-03-01T08:56:56;7.80;;;;;
55527;SDS011;52818;43.308;21.916;2023-03-01T09:01:06;8.10;;;5.70;;
55527;SDS011;52818;43.308;21.916;2023-03-01T09:02:59;16.00;;;11.00;;
55527;SDS011;52818;43.308;21.916;2023-03-01T09:04:57;23.70;;;14.20;;
55527;SDS011;52818;43.308;21.916;2023-03-01T09:08:57;9.30;;;7.30;;
55527;SDS011;52818;43.308;21.916;2023-03-01T09:10:57;10.20;;;9.20;;
55527;SDS011;52818;43.308;21.916;2023-03-01T09:12:57;10.50;;;8.00;;
55527;SDS011;52818;43.308;21.916;2023-03-01T09:15:02;15.40;;;13.90;;
55527;SDS011;52818;43.308;21.916;2023-03-01T09:17:00;7.00;;;6.30;;
55527;SDS011;52818;43.308;21.916;2023-03-01T09:18:57;7.70;;;6.70;;
55527;SDS011;52818;43.308;21.916;2023-03-01T09:21:00;6.60;;;4.40;;
55527;SDS011;52818;43.308;21.916;2023-03-01T09:23:01;5.60;;;4.50;;
55527;SDS011;52818;43.308;21.916;2023-03-01T09:24:58;6.20;;;5.00;;
55527;SDS011;52818;43.308;21.916;2023-03-01T09:26:58;8.30;;;5.90;;
55527;SDS011;52818;43.308;21.916;2023-03-01T09:28:58;11.80;;;9.30;;
55527;SDS011;52818;43.308;21.916;2023-03-01T09:30:58;11.50;;;8.30;;
55527;SDS011;52818;43.308;21.916;2023-03-01T09:35:04;105.10;;;57.20;;
55527;SDS011;52818;43.308;21.916;2023-03-01T09:43:05;31.10;;;24.20;;
55527;SDS011;52818;43.308;21.916;2023-03-01T09:47:09;10.50;;;8.70;;
55527;SDS011;52818;43.308;21.916;2023-03-01T09:51:12;6.70;;;6.00;;
55527;SDS011;52818;43.308;21.916;2023-03-01T09:53:00;7.10;;;5.60;;
55527;SDS011;52818;43.308;21.916;2023-03-01T09:57:06;5.10;;;4.20;;
55527;SDS011;52818;43.308;21.916;2023-03-01T09:59:04;5.70;;;3.60;;
55527;SDS011;52818;43.308;21.916;2023-03-01T10:03:01;7.00;;;4.90;;
55527;SDS011;52818;43.308;21.916;2023-03-01T10:05:05;6.80;;;4.70;;
55527;SDS011;52818;43.308;21.916;2023-03-01T10:07:04;4.90;;;4.00;;
55527;SDS011;52818;43.308;21.916;2023-03-01T10:09:10;6.20;;;4.10;;
55527;SDS011;52818;43.308;21.916;2023-03-01T10:11:00;8.20;;;6.00;;
55527;SDS011;52818;43.308;21.916;2023-03-01T10:13:08;6.10;;;4.70;;
55527;SDS011;52818;43.308;21.916;2023-03-01T10:17:01;7.30;;;4.40;;
55527;SDS011;52818;43.308;21.916;2023-03-01T10:19:01;7.60;;;5.20;;
55527;SDS011;52818;43.308;21.916;2023-03-01T10:21:01;7.50;;;5.10;;
55527;SDS011;52818;43.308;21.916;2023-03-01T10:23:08;5.50;;;4.20;;
55527;SDS011;52818;43.308;21.916;2023-03-01T10:25:08;6.50;;;4.80;;
55527;SDS011;52818;43.308;21.916;2023-03-01T10:29:04;5.20;;;4.10;;
55527;SDS011;52818;43.308;21.916;2023-03-01T10:31:00;5.10;;;3.70;;
55527;SDS011;52818;43.308;21.916;2023-03-01T10:33:31;4.60;;;3.30;;
55527;SDS011;52818;43.308;21.916;2023-03-01T10:35:41;7.00;;;6.10;;
55527;SDS011;52818;43.308;21.916;2023-03-01T10:37:35;9.30;;;7.10;;
55527;SDS011;52818;43.308;21.916;2023-03-01T10:39:31;12.20;;;8.60;;
55527;SDS011;52818;43.308;21.916;2023-03-01T10:41:31;10.80;;;8.90;;
55527;SDS011;52818;43.308;21.916;2023-03-01T10:43:32;14.60;;;10.90;;
55527;SDS011;52818;43.308;21.916;2023-03-01T10:45:33;17.10;;;11.60;;
55527;SDS011;52818;43.308;21.916;2023-03-01T10:47:32;15.30;;;10.50;;
55527;SDS011;52818;43.308;21.916;2023-03-01T10:49:36;21.10;;;15.20;;
55527;SDS011;52818;43.308;21.916;2023-03-01T10:51:32;27.60;;;21.20;;
55527;SDS011;52818;43.308;21.916;2023-03-01T10:53:34;83.50;;;66.50;;
55527;SDS011;52818;43.308;21.916;2023-03-01T10:55:33;27.80;;;22.90;;
55527;SDS011;52818;43.308;21.916;2023-03-01T10:57:42;15.70;;;12.70;;
55527;SDS011;52818;43.308;21.916;2023-03-01T10:59:37;7.20;;;6.00;;
55527;SDS011;52818;43.308;21.916;2023-03-01T11:01:33;9.30;;;6.90;;
55527;SDS011;52818;43.308;21.916;2023-03-01T11:03:36;7.70;;;5.70;;
55527;SDS011;52818;43.308;21.916;2023-03-01T11:05:32;6.50;;;5.30;;
55527;SDS011;52818;43.308;21.916;2023-03-01T11:07:32;6.00;;;4.90;;
55527;SDS011;52818;43.308;21.916;2023-03-01T11:09:33;6.50;;;;;
55527;SDS011;52818;43.308;21.916;2023-03-01T11:11:36;5.20;;;4.10;;
55527;SDS011;52818;43.308;21.916;2023-03-01T11:13:33;5.00;;;3.80;;
55527;SDS011;52818;43.308;21.916;2023-03-01T11:15:33;5.20;;;4.30;;
55527;SDS011;52818;43.308;21.916;2023-03-01T11:17:38;;;;4.10;;
55527;SDS011;52818;43.308;21.916;2023-03-01T11:21:38;6.00;;;4.00;;
55527;SDS011;52818;43.308;21.916;2023-03-01T11:23:33;5.30;;;4.10;;
55527;SDS011;52818;43.308;21.916;2023-03-01T11:25:39;7.00;;;5.20;;
55527;SDS011;52818;43.308;21.916;2023-03-01T11:29:39;6.60;;;5.10;;
55527;SDS011;52818;43.308;21.916;2023-03-01T11:31:34;8.90;;;5.30;;
55527;SDS011;52818;43.308;21.916;2023-03-01T11:33:39;6.10;;;4.60;;
55527;SDS011;52818;43.308;21.916;2023-03-01T11:35:34;9.30;;;7.10;;
55527;SDS011;52818;43.308;21.916;2023-03-01T11:37:35;10.10;;;6.80;;
55527;SDS011;52818;43.308;21.916;2023-03-01T11:41:34;5.80;;;4.70;;
55527;SDS011;52818;43.308;21.916;2023-03-01T11:43:37;5.90;;;;;
55527;SDS011;52818;43.308;21.916;2023-03-01T11:45:41;5.80;;;;;
55527;SDS011;52818;43.308;21.916;2023-03-01T11:49:43;5.00;;;4.10;;
55527;SDS011;52818;43.308;21.916;2023-03-01T11:51:38;4.30;;;3.90;;
55527;SDS011;52818;43.308;21.916;2023-03-01T11:53:41;7.00;;;5.30;;
55527;SDS011;52818;43.308;21.916;2023-03-01T11:55:44;14.60;;;9.30;;
55527;SDS011;52818;43.308;21.916;2023-03-01T11:57:43;11.80;;;8.80;;
55527;SDS011;52818;43.308;21.916;2023-03-01T11:59:41;11.70;;;9.40;;
55527;SDS011;52818;43.308;21.916;2023-03-01T12:01:39;8.40;;;6.80;;
55527;SDS011;52818;43.308;21.916;2023-03-01T12:03:40;5.90;;;4.70;;
55527;SDS011;52818;43.308;21.916;2023-03-01T12:05:45;7.50;;;6.30;;
55527;SDS011;52818;43.308;21.916;2023-03-01T12:07:46;7.90;;;6.20;;
55527;SDS011;52818;43.308;21.916;2023-03-01T12:09:38;6.30;;;5.10;;
55527;SDS011;52818;43.308;21.916;2023-03-01T12:11:50;6.10;;;5.30;;
55527;SDS011;52818;43.308;21.916;2023-03-01T12:13:42;8.80;;;5.80;;
55527;SDS011;52818;43.308;21.916;2023-03-01T12:15:42;17.70;;;11.30;;
55527;SDS011;52818;43.308;21.916;2023-03-01T12:17:46;26.40;;;15.10;;
55527;SDS011;52818;43.308;21.916;2023-03-01T12:19:41;14.00;;;8.60;;
55527;SDS011;52818;43.308;21.916;2023-03-01T12:21:42;8.90;;;6.80;;
55527;SDS011;52818;43.308;21.916;2023-03-01T12:23:46;9.60;;;;;
55527;SDS011;52818;43.308;21.916;2023-03-01T12:25:45;11.00;;;9.00;;
55527;SDS011;52818;43.308;21.916;2023-03-01T12:27:41;12.10;;;8.60;;
55527;SDS011;52818;43.308;21.916;2023-03-01T12:29:38;13.00;;;9.60;;
55527;SDS011;52818;43.308;21.916;2023-03-01T12:35:42;24.90;;;17.60;;
55527;SDS011;52818;43.308;21.916;2023-03-01T12:37:45;10.60;;;8.70;;
55527;SDS011;52818;43.308;21.916;2023-03-01T12:39:43;13.20;;;9.60;;
55527;SDS011;52818;43.308;21.916;2023-03-01T12:41:42;10.70;;;7.90;;
55527;SDS011;52818;43.308;21.916;2023-03-01T12:43:41;14.80;;;9.70;;
55527;SDS011;52818;43.308;21.916;2023-03-01T12:45:42;10.80;;;7.20;;
55527;SDS011;52818;43.308;21.916;2023-03-01T12:47:50;13.90;;;9.00;;
55527;SDS011;52818;43.308;21.916;2023-03-01T12:49:48;12.10;;;8.30;;
55527;SDS011;52818;43.308;21.916;2023-03-01T12:51:50;13.70;;;9.50;;
55527;SDS011;52818;43.308;21.916;2023-03-01T12:53:40;11.40;;;8.40;;
55527;SDS011;52818;43.308;21.916;2023-03-01T12:55:43;21.00;;;12.30;;
55527;SDS011;52818;43.308;21.916;2023-03-01T12:57:40;18.40;;;12.60;;
55527;SDS011;52818;43.308;21.916;2023-03-01T12:59:42;23.00;;;19.30;;
55527;SDS011;52818;43.308;21.916;2023-03-01T13:01:42;15.40;;;10.30;;
55527;SDS011;52818;43.308;21.916;2023-03-01T13:03:48;9.40;;;7.30;;
55527;SDS011;52818;43.308;21.916;2023-03-01T13:05:42;11.70;;;8.20;;
55527;SDS011;52818;43.308;21.916;2023-03-01T13:07:40;14.30;;;10.40;;
55527;SDS011;52818;43.308;21.916;2023-03-01T13:09:39;15.10;;;9.20;;
55527;SDS011;52818;43.308;21.916;2023-03-01T13:11:41;11.40;;;8.30;;
55527;SDS011;52818;43.308;21.916;2023-03-01T13:15:39;10.80;;;7.90;;
55527;SDS011;52818;43.308;21.916;2023-03-01T13:21:44;28.80;;;22.30;;
55527;SDS011;52818;43.308;21.916;2023-03-01T13:23:39;23.90;;;18.70;;
55527;SDS011;52818;43.308;21.916;2023-03-01T13:27:39;11.00;;;8.30;;
55527;SDS011;52818;43.308;21.916;2023-03-01T13:29:44;14.80;;;13.30;;
55527;SDS011;52818;43.308;21.916;2023-03-01T13:33:33;8.50;;;7.00;;
55527;SDS011;52818;43.308;21.916;2023-03-01T13:35:45;13.20;;;10.00;;
55527;SDS011;52818;43.308;21.916;2023-03-01T13:37:30;12.50;;;9.80;;
55527;SDS011;52818;43.308;21.916;2023-03-01T13:39:30;12.20;;;9.20;;
55527;SDS011;52818;43.308;21.916;2023-03-01T13:41:13;11.60;;;8.40;;
55527;SDS011;52818;43.308;21.916;2023-03-01T13:43:30;11.10;;;8.20;;
55527;SDS011;52818;43.308;21.916;2023-03-01T13:45:15;11.00;;;;;
55527;SDS011;52818;43.308;21.916;2023-03-01T13:47:16;;;;8.60;;
55527;SDS011;52818;43.308;21.916;2023-03-01T13:49:14;12.50;;;9.20;;
55527;SDS011;52818;43.308;21.916;2023-03-01T13:51:14;10.40;;;7.90;;
55527;SDS011;52818;43.308;21.916;2023-03-01T13:53:14;8.90;;;6.30;;
55527;SDS011;52818;43.308;21.916;2023-03-01T13:55:16;17.20;;;14.60;;
55527;SDS011;52818;43.308;21.916;2023-03-01T13:57:18;64.70;;;47.80;;
55527;SDS011;52818;43.308;21.916;2023-03-01T13:59:14;51.60;;;38.70;;
55527;SDS011;52818;43.308;21.916;2023-03-01T14:01:20;43.80;;;34.10;;
55527;SDS011;52818;43.308;21.916;2023-03-01T14:03:15;28.70;;;24.20;;
55527;SDS011;52818;43.308;21.916;2023-03-01T14:05:14;26.30;;;23.50;;
55527;SDS011;52818;43.308;21.916;2023-03-01T14:07:18;14.70;;;13.20;;
55527;SDS011;52818;43.308;21.916;2023-03-01T14:09:16;14.50;;;12.00;;
55527;SDS011;52818;43.308;21.916;2023-03-01T14:12:22;10.60;;;9.20;;
55527;SDS011;52818;43.308;21.916;2023-03-01T14:13:20;11.60;;;8.30;;
55527;SDS011;52818;43.308;21.916;2023-03-01T14:15:15;11.20;;;8.10;;
55527;SDS011;52818;43.308;21.916;2023-03-01T14:17:19;11.40;;;7.90;;
55527;SDS011;52818;43.308;21.916;2023-03-01T14:19:16;8.80;;;7.20;;
55527;SDS011;52818;43.308;21.916;2023-03-01T14:21:15;9.80;;;7.30;;
55527;SDS011;52818;43.308;21.916;2023-03-01T14:23:17;9.60;;;7.70;;
55527;SDS011;52818;43.308;21.916;2023-03-01T14:25:18;;;;7.40;;
55527;SDS011;52818;43.308;21.916;2023-03-01T14:27:15;11.70;;;7.60;;
55527;SDS011;52818;43.308;21.916;2023-03-01T14:29:23;;;;8.70;;
55527;SDS011;52818;43.308;21.916;2023-03-01T14:31:32;9.70;;;7.40;;
55527;SDS011;52818;43.308;21.916;2023-03-01T14:33:19;9.80;;;7.30;;
55527;SDS011;52818;43.308;21.916;2023-03-01T14:35:19;9.20;;;7.10;;
55527;SDS011;52818;43.308;21.916;2023-03-01T14:37:18;10.30;;;7.40;;
55527;SDS011;52818;43.308;21.916;2023-03-01T14:39:16;9.40;;;6.60;;
55527;SDS011;52818;43.308;21.916;2023-03-01T14:41:17;10.30;;;7.30;;
55527;SDS011;52818;43.308;21.916;2023-03-01T14:43:17;9.90;;;7.80;;
55527;SDS011;52818;43.308;21.916;2023-03-01T14:45:16;9.50;;;7.20;;
55527;SDS011;52818;43.308;21.916;2023-03-01T14:47:20;8.90;;;7.00;;
55527;SDS011;52818;43.308;21.916;2023-03-01T14:49:17;10.40;;;7.50;;
55527;SDS011;52818;43.308;21.916;2023-03-01T14:51:17;11.20;;;8.30;;
55527;SDS011;52818;43.308;21.916;2023-03-01T14:53:18;10.60;;;8.00;;
55527;SDS011;52818;43.308;21.916;2023-03-01T14:55:18;10.80;;;8.10;;
55527;SDS011;52818;43.308;21.916;2023-03-01T14:57:18;16.40;;;11.70;;
55527;SDS011;52818;43.308;21.916;2023-03-01T14:59:18;14.80;;;11.10;;
55527;SDS011;52818;43.308;21.916;2023-03-01T15:01:17;13.80;;;10.70;;
55527;SDS011;52818;43.308;21.916;2023-03-01T15:03:20;11.70;;;8.10;;
55527;SDS011;52818;43.308;21.916;2023-03-01T15:05:18;10.60;;;8.50;;
55527;SDS011;52818;43.308;21.916;2023-03-01T15:07:17;14.10;;;10.80;;
55527;SDS011;52818;43.308;21.916;2023-03-01T15:09:18;13.50;;;9.90;;
55527;SDS011;52818;43.308;21.916;2023-03-01T15:11:19;11.90;;;8.90;;
55527;SDS011;52818;43.308;21.916;2023-03-01T15:13:21;12.00;;;9.20;;
55527;SDS011;52818;43.308;21.916;2023-03-01T15:15:20;12.90;;;9.40;;
55527;SDS011;52818;43.308;21.916;2023-03-01T15:17:20;15.70;;;11.30;;
55527;SDS011;52818;43.308;21.916;2023-03-01T15:19:18;14.50;;;10.80;;
55527;SDS011;52818;43.308;21.916;2023-03-01T15:21:18;12.80;;;8.80;;
55527;SDS011;52818;43.308;21.916;2023-03-01T15:23:20;9.20;;;6.90;;
55527;SDS011;52818;43.308;21.916;2023-03-01T15:25:19;11.90;;;8.50;;
55527;SDS011;52818;43.308;21.916;2023-03-01T15:27:19;12.70;;;8.60;;
55527;SDS011;52818;43.308;21.916;2023-03-01T15:29:19;13.50;;;8.90;;
55527;SDS011;52818;43.308;21.916;2023-03-01T15:31:19;11.00;;;8.10;;
55527;SDS011;52818;43.308;21.916;2023-03-01T15:33:25;14.10;;;9.20;;
55527;SDS011;52818;43.308;21.916;2023-03-01T15:35:51;10.50;;;7.90;;
55527;SDS011;52818;43.308;21.916;2023-03-01T15:37:35;14.50;;;10.60;;
55527;SDS011;52818;43.308;21.916;2023-03-01T15:39:36;34.80;;;22.10;;
55527;SDS011;52818;43.308;21.916;2023-03-01T15:41:23;28.60;;;18.70;;
55527;SDS011;52818;43.308;21.916;2023-03-01T15:43:51;49.50;;;31.60;;
55527;SDS011;52818;43.308;21.916;2023-03-01T15:45:21;32.60;;;22.70;;
55527;SDS011;52818;43.308;21.916;2023-03-01T15:47:24;32.80;;;21.70;;
55527;SDS011;52818;43.308;21.916;2023-03-01T15:49:24;45.10;;;31.10;;
55527;SDS011;52818;43.308;21.916;2023-03-01T15:51:21;49.80;;;42.70;;
55527;SDS011;52818;43.308;21.916;2023-03-01T15:53:19;37.30;;;31.40;;
55527;SDS011;52818;43.308;21.916;2023-03-01T15:55:20;27.60;;;22.20;;
55527;SDS011;52818;43.308;21.916;2023-03-01T15:57:20;25.80;;;23.10;;
55527;SDS011;52818;43.308;21.916;2023-03-01T15:59:20;14.10;;;12.10;;
55527;SDS011;52818;43.308;21.916;2023-03-01T16:01:20;16.40;;;13.60;;
55527;SDS011;52818;43.308;21.916;2023-03-01T16:03:20;21.80;;;16.90;;
55527;SDS011;52818;43.308;21.916;2023-03-01T16:05:21;28.40;;;21.20;;
55527;SDS011;52818;43.308;21.916;2023-03-01T16:07:20;28.70;;;21.50;;
55527;SDS011;52818;43.308;21.916;2023-03-01T16:09:21;36.10;;;28.40;;
55527;SDS011;52818;43.308;21.916;2023-03-01T16:11:21;24.40;;;19.50;;
55527;SDS011;52818;43.308;21.916;2023-03-01T16:13:20;37.60;;;29.90;;
55527;SDS011;52818;43.308;21.916;2023-03-01T16:15:21;26.20;;;19.40;;
55527;SDS011;52818;43.308;21.916;2023-03-01T16:17:21;22.10;;;18.20;;
55527;SDS011;52818;43.308;21.916;2023-03-01T16:19:21;19.80;;;15.10;;
55527;SDS011;52818;43.308;21.916;2023-03-01T16:21:21;22.60;;;15.70;;
55527;SDS011;52818;43.308;21.916;2023-03-01T16:23:21;24.40;;;16.90;;
55527;SDS011;52818;43.308;21.916;2023-03-01T16:25:21;19.30;;;15.00;;
55527;SDS011;52818;43.308;21.916;2023-03-01T16:27:21;20.20;;;14.30;;
55527;SDS011;52818;43.308;21.916;2023-03-01T16:29:21;17.00;;;12.50;;
55527;SDS011;52818;43.308;21.916;2023-03-01T16:31:22;15.90;;;12.20;;
55527;SDS011;52818;43.308;21.916;2023-03-01T16:33:21;18.90;;;13.70;;
55527;SDS011;52818;43.308;21.916;2023-03-01T16:35:21;17.90;;;12.80;;
55527;SDS011;52818;43.308;21.916;2023-03-01T16:37:52;18.20;;;14.00;;
55527;SDS011;52818;43.308;21.916;2023-03-01T16:39:52;18.60;;;14.30;;
55527;SDS011;52818;43.308;21.916;2023-03-01T16:41:52;22.70;;;17.10;;
55527;SDS011;52818;43.308;21.916;2023-03-01T16:43:52;18.70;;;13.90;;
55527;SDS011;52818;43.308;21.916;2023-03-01T16:45:52;20.60;;;15.50;;
55527;SDS011;52818;43.308;21.916;2023-03-01T16:47:52;22.60;;;17.60;;
55527;SDS011;52818;43.308;21.916;2023-03-01T16:49:52;39.50;;;28.50;;
55527;SDS011;52818;43.308;21.916;2023-03-01T16:51:53;24.90;;;18.80;;
55527;SDS011;52818;43.308;21.916;2023-03-01T16:53:52;41.50;;;28.20;;
55527;SDS011;52818;43.308;21.916;2023-03-01T16:55:53;45.40;;;31.10;;
55527;SDS011;52818;43.308;21.916;2023-03-01T16:57:52;54.20;;;37.30;;
55527;SDS011;52818;43.308;21.916;2023-03-01T16:59:53;39.50;;;27.80;;
55527;SDS011;52818;43.308;21.916;2023-03-01T17:01:53;60.20;;;38.50;;
55527;SDS011;52818;43.308;21.916;2023-03-01T17:03:53;88.50;;;55.10;;
55527;SDS011;52818;43.308;21.916;2023-03-01T17:05:53;72.90;;;52.40;;
55527;SDS011;52818;43.308;21.916;2023-03-01T17:07:53;83.40;;;54.30;;
55527;SDS011;52818;43.308;21.916;2023-03-01T17:09:53;100.20;;;65.20;;
55527;SDS011;52818;43.308;21.916;2023-03-01T17:11:53;38.30;;;26.30;;
55527;SDS011;52818;43.308;21.916;2023-03-01T17:13:53;44.70;;;30.20;;
55527;SDS011;52818;43.308;21.916;2023-03-01T17:15:53;44.90;;;;;
55527;SDS011;52818;43.308;21.916;2023-03-01T17:17:54;43.90;;;29.60;;
55527;SDS011;52818;43.308;21.916;2023-03-01T17:19:54;58.90;;;38.10;;
55527;SDS011;52818;43.308;21.916;2023-03-01T17:21:54;38.70;;;26.80;;
55527;SDS011;52818;43.308;21.916;2023-03-01T17:23:55;23.00;;;17.00;;
55527;SDS011;52818;43.308;21.916;2023-03-01T17:25:54;22.90;;;16.90;;
55527;SDS011;52818;43.308;21.916;2023-03-01T17:27:54;58.80;;;36.90;;
55527;SDS011;52818;43.308;21.916;2023-03-01T17:29:54;59.40;;;38.70;;
55527;SDS011;52818;43.308;21.916;2023-03-01T17:31:54;30.50;;;21.30;;
55527;SDS011;52818;43.308;21.916;2023-03-01T17:33:55;27.80;;;20.40;;
55527;SDS011;52818;43.308;21.916;2023-03-01T17:35:55;17.00;;;13.20;;
55527;SDS011;52818;43.308;21.916;2023-03-01T17:37:55;20.90;;;17.00;;
55527;SDS011;52818;43.308;21.916;2023-03-01T17:39:55;23.70;;;18.70;;
55527;SDS011;52818;43.308;21.916;2023-03-01T17:41:56;17.40;;;14.90;;
55527;SDS011;52818;43.308;21.916;2023-03-01T17:43:55;13.70;;;11.90;;
55527;SDS011;52818;43.308;21.916;2023-03-01T17:45:56;13.20;;;11.30;;
55527;SDS011;52818;43.308;21.916;2023-03-01T17:47:55;14.40;;;12.90;;
55527;SDS011;52818;43.308;21.916;2023-03-01T17:49:56;16.00;;;13.40;;
55527;SDS011;52818;43.308;21.916;2023-03-01T17:51:56;15.50;;;13.20;;
55527;SDS011;52818;43.308;21.916;2023-03-01T17:53:56;22.20;;;15.00;;
55527;SDS011;52818;43.308;21.916;2023-03-01T17:55:59;16.90;;;13.00;;
55527;SDS011;52818;43.308;21.916;2023-03-01T17:57:56;12.90;;;10.60;;
55527;SDS011;52818;43.308;21.916;2023-03-01T17:59:56;22.70;;;14.00;;
55527;SDS011;52818;43.308;21.916;2023-03-01T18:01:56;14.60;;;10.20;;
55527;SDS011;52818;43.308;21.916;2023-03-01T18:03:56;11.70;;;8.90;;
55527;SDS011;52818;43.308;21.916;2023-03-01T18:05:56;17.00;;;10.40;;
55527;SDS011;52818;43.308;21.916;2023-03-01T18:07:56;14.90;;;10.90;;
55527;SDS011;52818;43.308;21.916;2023-03-01T18:09:56;28.80;;;19.00;;
55527;SDS011;52818;43.308;21.916;2023-03-01T18:11:57;23.90;;;16.10;;
55527;SDS011;52818;43.308;21.916;2023-03-01T18:13:57;19.10;;;13.50;;
55527;SDS011;52818;43.308;21.916;2023-03-01T18:15:57;20.80;;;14.90;;